createdAt,value
2017-12-02T00:02:18.604Z,39.17
2017-12-02T00:04:46.942Z,38.92
2017-12-02T00:07:15.326Z,41.67
2017-12-02T00:09:43.688Z,42.95
2017-12-02T00:12:12.172Z,41.00
2017-12-02T00:14:40.588Z,40.00
2017-12-02T00:17:08.916Z,40.78
2017-12-02T00:19:38.048Z,40.30
2017-12-02T00:22:06.390Z,39.88
2017-12-02T00:24:35.554Z,42.90
2017-12-02T00:27:03.976Z,39.70
2017-12-02T00:29:32.358Z,45.88
2017-12-02T00:32:01.517Z,43.33
2017-12-02T00:34:29.927Z,40.65
2017-12-02T00:36:58.314Z,42.03
2017-12-02T00:39:27.466Z,41.20
2017-12-02T00:41:55.826Z,38.13
2017-12-02T00:44:24.935Z,35.33
2017-12-02T00:46:55.718Z,41.72
2017-12-02T00:49:36.256Z,41.70
2017-12-02T00:52:04.583Z,39.17
2017-12-02T00:54:32.916Z,42.80
2017-12-02T00:57:27.417Z,38.75
2017-12-02T01:06:40.158Z,35.08
2017-12-02T01:09:38.050Z,36.92
2017-12-02T01:12:07.189Z,33.72
2017-12-02T01:14:36.480Z,34.60
2017-12-02T01:17:07.634Z,33.83
2017-12-02T01:19:36.009Z,36.53
2017-12-02T01:22:04.374Z,36.33
2017-12-02T01:24:32.768Z,36.92
2017-12-02T01:27:01.125Z,38.70
2017-12-02T01:29:29.454Z,42.78
2017-12-02T01:31:57.790Z,42.33
2017-12-02T01:34:26.115Z,39.42
2017-12-02T01:36:54.434Z,41.72
2017-12-02T01:39:22.760Z,42.40
2017-12-02T01:41:51.084Z,38.63
2017-12-02T01:44:19.352Z,38.20
2017-12-02T01:49:34.198Z,38.50
2017-12-02T01:52:13.432Z,44.05
2017-12-02T01:54:41.792Z,42.85
2017-12-02T01:57:10.885Z,43.10
2017-12-02T01:59:39.239Z,43.70
2017-12-02T02:02:07.542Z,42.53
2017-12-02T02:04:35.828Z,43.50
2017-12-02T02:07:04.105Z,42.00
2017-12-02T02:09:34.205Z,43.42
2017-12-02T02:12:07.644Z,43.08
2017-12-02T02:14:36.795Z,43.35
2017-12-02T02:17:05.185Z,39.22
2017-12-02T02:19:33.528Z,40.92
2017-12-02T02:22:01.868Z,35.88
2017-12-02T02:24:30.897Z,35.78
2017-12-02T02:26:59.159Z,33.80
2017-12-02T02:29:27.424Z,39.85
2017-12-02T02:31:56.466Z,36.70
2017-12-02T02:34:24.721Z,35.92
2017-12-02T02:36:52.993Z,36.17
2017-12-02T02:39:21.252Z,37.72
2017-12-02T02:41:49.518Z,39.10
2017-12-02T02:44:18.539Z,42.58
2017-12-02T02:46:46.810Z,43.72
2017-12-02T02:49:15.070Z,43.70
2017-12-02T02:51:44.106Z,44.83
2017-12-02T02:54:12.363Z,41.88
2017-12-02T02:56:40.642Z,45.03
2017-12-02T02:59:08.901Z,46.30
2017-12-02T03:01:37.161Z,41.28
2017-12-02T03:04:06.202Z,37.38
2017-12-02T03:06:34.450Z,37.40
2017-12-02T03:09:02.721Z,39.72
2017-12-02T03:11:30.979Z,42.22
2017-12-02T03:14:00.009Z,44.65
2017-12-02T03:16:28.278Z,47.85
2017-12-02T03:18:56.563Z,50.25
2017-12-02T03:21:24.842Z,47.42
2017-12-02T03:23:53.138Z,38.13
2017-12-02T03:26:21.413Z,39.80
2017-12-02T03:28:49.712Z,39.05
2017-12-02T03:31:17.999Z,41.40
2017-12-02T03:33:47.058Z,41.85
2017-12-02T03:36:15.338Z,46.40
2017-12-02T03:38:43.634Z,43.90
2017-12-02T03:41:11.928Z,42.05
2017-12-02T03:43:40.980Z,41.50
2017-12-02T03:46:09.272Z,43.72
2017-12-02T03:48:37.544Z,41.83
2017-12-02T03:51:05.832Z,38.10
2017-12-02T03:53:34.107Z,40.72
2017-12-02T03:56:02.402Z,38.25
2017-12-02T03:58:31.450Z,40.72
2017-12-02T04:00:59.756Z,40.08
2017-12-02T04:03:28.045Z,40.33
2017-12-02T04:05:57.095Z,45.78
2017-12-02T04:08:25.366Z,45.40
2017-12-02T04:10:53.670Z,45.63
2017-12-02T04:13:21.946Z,40.10
2017-12-02T04:15:50.236Z,42.00
2017-12-02T04:18:19.288Z,46.83
2017-12-02T04:20:47.564Z,38.78
2017-12-02T04:23:15.835Z,36.40
2017-12-02T04:25:44.098Z,40.95
2017-12-02T04:28:12.370Z,39.70
2017-12-02T04:30:40.633Z,41.10
2017-12-02T04:33:08.916Z,39.00
2017-12-02T04:35:37.169Z,39.80
2017-12-02T04:38:06.205Z,44.08
2017-12-02T04:40:34.466Z,43.28
2017-12-02T04:43:02.731Z,41.92
2017-12-02T04:45:30.994Z,44.90
2017-12-02T04:48:00.582Z,44.15
2017-12-02T04:50:28.842Z,40.80
2017-12-02T04:52:57.114Z,41.35
2017-12-02T04:55:25.371Z,44.28
2017-12-02T04:57:53.643Z,45.78
2017-12-02T05:00:21.915Z,43.30
2017-12-02T05:02:50.187Z,43.35
2017-12-02T05:05:18.448Z,41.90
2017-12-02T05:07:46.736Z,44.92
2017-12-02T05:10:14.997Z,41.65
2017-12-02T05:12:43.258Z,45.28
2017-12-02T05:15:12.295Z,43.05
2017-12-02T05:17:41.321Z,40.40
2017-12-02T05:20:09.590Z,43.60
2017-12-02T05:22:37.851Z,46.30
2017-12-02T05:25:06.125Z,41.03
2017-12-02T05:27:34.381Z,44.90
2017-12-02T05:30:02.662Z,46.95
2017-12-02T05:32:30.925Z,45.47
2017-12-02T05:34:59.222Z,44.97
2017-12-02T05:37:27.485Z,46.72
2017-12-02T05:39:55.742Z,49.20
2017-12-02T05:42:24.014Z,46.72
2017-12-02T05:44:52.280Z,48.47
2017-12-02T05:47:21.307Z,47.80
2017-12-02T05:49:49.571Z,46.13
2017-12-02T05:52:17.844Z,43.67
2017-12-02T05:54:46.098Z,42.08
2017-12-02T05:57:15.147Z,40.70
2017-12-02T05:59:43.395Z,42.35
2017-12-02T06:02:11.661Z,43.55
2017-12-02T06:04:39.932Z,41.10
2017-12-02T06:07:08.202Z,43.90
2017-12-02T06:09:36.474Z,45.28
2017-12-02T06:12:04.743Z,43.40
2017-12-02T06:14:33.768Z,42.60
2017-12-02T06:17:02.039Z,40.05
2017-12-02T06:19:30.295Z,39.03
2017-12-02T06:21:58.566Z,39.70
2017-12-02T06:24:27.590Z,39.10
2017-12-02T06:26:55.853Z,34.50
2017-12-02T06:29:24.118Z,40.05
2017-12-02T06:31:52.377Z,42.58
2017-12-02T06:34:21.409Z,32.75
2017-12-02T06:36:49.738Z,31.48
2017-12-02T06:39:18.779Z,31.45
2017-12-02T06:41:47.034Z,33.35
2017-12-02T06:44:15.302Z,29.92
2017-12-02T06:46:43.567Z,41.45
2017-12-02T06:49:12.599Z,49.30
2017-12-02T06:51:40.872Z,89.07
2017-12-02T06:54:09.190Z,57.70
2017-12-02T06:56:37.446Z,53.33
2017-12-02T06:59:06.140Z,57.80
2017-12-02T07:01:35.188Z,57.83
2017-12-02T07:04:03.450Z,65.80
2017-12-02T07:06:31.717Z,65.40
2017-12-02T07:09:00.763Z,66.68
2017-12-02T07:11:29.027Z,63.95
2017-12-02T07:13:57.301Z,56.03
2017-12-02T07:16:25.566Z,56.17
2017-12-02T07:18:53.853Z,77.12
2017-12-02T07:21:22.115Z,104.78
2017-12-02T07:23:50.389Z,53.33
2017-12-02T07:26:18.661Z,66.35
2017-12-02T07:28:46.938Z,48.38
2017-12-02T07:31:15.202Z,52.40
2017-12-02T07:33:44.238Z,61.22
2017-12-02T07:36:12.506Z,48.35
2017-12-02T07:38:40.774Z,65.87
2017-12-02T07:41:09.041Z,52.33
2017-12-02T07:43:37.314Z,63.38
2017-12-02T07:46:05.581Z,59.85
2017-12-02T07:48:33.853Z,59.65
2017-12-02T07:51:02.117Z,83.10
2017-12-02T07:53:31.163Z,64.15
2017-12-02T07:55:59.429Z,81.28
2017-12-02T07:58:27.710Z,64.07
2017-12-02T08:00:56.035Z,52.62
2017-12-02T08:03:25.086Z,60.53
2017-12-02T08:05:53.358Z,66.93
2017-12-02T08:08:21.630Z,69.90
2017-12-02T08:10:49.895Z,65.90
2017-12-02T08:13:18.171Z,51.35
2017-12-02T08:15:46.437Z,45.80
2017-12-02T08:18:14.712Z,60.38
2017-12-02T08:20:42.990Z,43.58
2017-12-02T08:23:11.272Z,102.15
2017-12-02T08:25:39.543Z,82.95
2017-12-02T08:28:07.814Z,77.12
2017-12-02T08:30:36.079Z,52.92
2017-12-02T08:33:04.354Z,66.22
2017-12-02T08:35:32.625Z,48.90
2017-12-02T08:38:01.662Z,62.38
2017-12-02T08:40:29.926Z,76.43
2017-12-02T08:42:58.213Z,32.75
2017-12-02T08:45:26.481Z,38.95
2017-12-02T08:47:54.758Z,33.00
2017-12-02T08:50:23.027Z,44.83
2017-12-02T08:52:51.298Z,44.38
2017-12-02T08:55:19.562Z,28.23
2017-12-02T08:57:47.835Z,44.00
2017-12-02T09:00:16.147Z,31.15
2017-12-02T09:02:44.424Z,47.17
2017-12-02T09:05:12.690Z,30.17
2017-12-02T09:07:40.966Z,27.65
2017-12-02T09:10:09.242Z,44.88
2017-12-02T09:12:37.510Z,35.55
2017-12-02T09:15:05.793Z,38.25
2017-12-02T09:17:34.065Z,32.97
2017-12-02T09:20:02.343Z,39.85
2017-12-02T09:22:30.606Z,25.98
2017-12-02T09:24:58.879Z,30.15
2017-12-02T09:27:27.164Z,32.33
2017-12-02T09:29:55.433Z,33.83
2017-12-02T09:32:23.706Z,44.53
2017-12-02T09:34:51.989Z,84.03
2017-12-02T09:37:20.249Z,76.55
2017-12-02T09:39:48.535Z,80.03
2017-12-02T09:42:16.798Z,46.03
2017-12-02T09:44:45.075Z,60.70
2017-12-02T09:47:13.347Z,60.10
2017-12-02T09:49:41.627Z,78.87
2017-12-02T09:52:09.906Z,101.90
2017-12-02T09:54:38.190Z,35.15
2017-12-02T09:57:06.455Z,46.47
2017-12-02T09:59:34.739Z,55.60
2017-12-02T10:02:03.005Z,54.83
2017-12-02T10:04:31.283Z,50.47
2017-12-02T10:06:59.562Z,65.18
2017-12-02T10:09:27.835Z,24.85
2017-12-02T10:11:56.107Z,20.95
2017-12-02T10:14:24.390Z,26.33
2017-12-02T10:16:52.652Z,26.27
2017-12-02T10:19:20.934Z,37.38
2017-12-02T10:21:49.208Z,29.85
2017-12-02T10:24:17.483Z,20.52
2017-12-02T10:26:45.752Z,19.30
2017-12-02T10:29:14.792Z,18.42
2017-12-02T10:31:43.056Z,18.55
2017-12-02T10:34:11.329Z,22.37
2017-12-02T10:36:39.600Z,21.95
2017-12-02T10:39:07.877Z,31.62
2017-12-02T10:41:36.142Z,19.73
2017-12-02T10:44:04.423Z,20.25
2017-12-02T10:46:32.681Z,22.62
2017-12-02T10:49:00.953Z,22.25
2017-12-02T10:51:29.222Z,23.75
2017-12-02T10:53:58.264Z,24.42
2017-12-02T10:56:26.536Z,22.48
2017-12-02T10:58:54.813Z,20.45
2017-12-02T11:01:23.089Z,21.02
2017-12-02T11:03:51.363Z,21.00
2017-12-02T11:06:19.636Z,18.73
2017-12-02T11:08:47.902Z,19.42
2017-12-02T11:11:16.179Z,20.75
2017-12-02T11:13:44.448Z,20.58
2017-12-02T11:16:12.729Z,20.75
2017-12-02T11:18:40.999Z,22.37
2017-12-02T11:21:09.275Z,20.23
2017-12-02T11:23:37.568Z,18.15
2017-12-02T11:26:05.849Z,22.52
2017-12-02T11:28:34.108Z,21.75
2017-12-02T11:31:02.393Z,19.30
2017-12-02T11:33:30.648Z,18.80
2017-12-02T11:35:58.919Z,17.87
2017-12-02T11:38:27.183Z,17.10
2017-12-02T11:40:56.227Z,19.85
2017-12-02T11:43:24.510Z,21.67
2017-12-02T11:45:52.784Z,18.77
2017-12-02T11:48:21.186Z,20.27
2017-12-02T11:50:49.658Z,19.87
2017-12-02T11:53:17.933Z,19.50
2017-12-02T11:55:46.296Z,20.67
2017-12-02T11:58:14.646Z,21.15
2017-12-02T12:00:42.981Z,19.02
2017-12-02T12:03:12.140Z,19.25
2017-12-02T12:05:40.504Z,20.12
2017-12-02T12:11:03.086Z,19.33
2017-12-02T12:13:31.460Z,18.47
2017-12-02T12:15:59.827Z,20.48
2017-12-02T12:18:28.184Z,25.00
2017-12-02T12:20:57.355Z,32.72
2017-12-02T12:23:27.074Z,25.77
2017-12-02T12:25:56.173Z,20.10
2017-12-02T12:28:25.299Z,17.48
2017-12-02T12:30:53.672Z,19.90
2017-12-02T12:33:21.999Z,16.98
2017-12-02T12:35:50.344Z,17.60
2017-12-02T12:38:18.698Z,17.50
2017-12-02T12:40:47.030Z,17.57
2017-12-02T12:43:15.347Z,21.40
2017-12-02T12:45:43.744Z,19.13
2017-12-02T12:48:12.074Z,18.70
2017-12-02T12:50:41.184Z,19.30
2017-12-02T12:53:09.596Z,18.75
2017-12-02T12:55:37.960Z,17.30
2017-12-02T12:58:06.309Z,18.30
2017-12-02T13:00:35.418Z,21.37
2017-12-02T13:03:04.527Z,20.17
2017-12-02T13:05:32.869Z,19.53
2017-12-02T13:08:03.004Z,19.70
2017-12-02T13:10:32.177Z,19.37
2017-12-02T13:13:00.559Z,20.73
2017-12-02T13:15:28.906Z,20.25
2017-12-02T13:17:57.279Z,21.50
2017-12-02T13:20:25.636Z,19.57
2017-12-02T13:22:54.024Z,18.23
2017-12-02T13:25:24.131Z,18.45
2017-12-02T13:27:52.496Z,20.10
2017-12-02T13:30:20.860Z,20.40
2017-12-02T13:32:49.987Z,20.85
2017-12-02T13:35:18.351Z,22.98
2017-12-02T13:37:46.719Z,22.70
2017-12-02T13:40:15.838Z,24.87
2017-12-02T13:42:44.162Z,23.30
2017-12-02T13:45:12.501Z,25.90
2017-12-02T13:47:40.835Z,29.23
2017-12-02T13:50:09.970Z,24.10
2017-12-02T13:52:38.331Z,23.15
2017-12-02T13:55:06.674Z,21.37
2017-12-02T13:57:35.780Z,21.10
2017-12-02T14:00:04.935Z,22.58
2017-12-02T14:02:33.290Z,20.83
2017-12-02T14:05:01.628Z,22.60
2017-12-02T14:07:30.782Z,21.90
2017-12-02T14:09:59.109Z,23.58
2017-12-02T14:12:28.286Z,22.58
2017-12-02T14:14:56.626Z,24.63
2017-12-02T14:17:24.977Z,23.40
2017-12-02T14:19:53.318Z,21.50
2017-12-02T14:22:21.677Z,19.77
2017-12-02T14:24:50.010Z,22.23
2017-12-02T14:27:18.356Z,21.65
2017-12-02T14:29:46.699Z,22.52
2017-12-02T14:32:15.050Z,20.58
2017-12-02T14:34:43.414Z,21.58
2017-12-02T14:37:12.502Z,21.05
2017-12-02T14:39:41.665Z,23.45
2017-12-02T14:42:09.990Z,22.20
2017-12-02T14:44:39.113Z,25.55
2017-12-02T14:47:07.442Z,24.08
2017-12-02T14:49:35.786Z,26.37
2017-12-02T14:52:04.117Z,26.42
2017-12-02T14:54:32.521Z,27.10
2017-12-02T14:57:00.858Z,28.42
2017-12-02T14:59:30.017Z,27.15
2017-12-02T15:01:58.373Z,24.90
2017-12-02T15:04:26.722Z,27.87
2017-12-02T15:06:55.047Z,28.92
2017-12-02T15:09:24.480Z,25.88
2017-12-02T15:11:53.592Z,27.58
2017-12-02T15:14:22.715Z,30.60
2017-12-02T15:16:51.085Z,27.25
2017-12-02T15:19:19.419Z,34.35
2017-12-02T15:21:48.557Z,30.33
2017-12-02T15:24:16.878Z,28.40
2017-12-02T15:26:45.219Z,29.70
2017-12-02T15:29:13.560Z,24.70
2017-12-02T15:31:42.701Z,25.73
2017-12-02T15:34:11.052Z,31.75
2017-12-02T15:36:40.144Z,28.58
2017-12-02T15:39:09.275Z,26.98
2017-12-02T15:41:37.578Z,28.25
2017-12-02T15:44:05.885Z,26.37
2017-12-02T15:46:34.965Z,28.67
2017-12-02T15:49:03.286Z,30.53
2017-12-02T15:51:31.601Z,23.45
2017-12-02T15:53:59.943Z,27.48
2017-12-02T15:56:28.277Z,29.98
2017-12-02T15:58:56.589Z,29.65
2017-12-02T16:01:24.896Z,27.70
2017-12-02T16:03:53.218Z,25.42
2017-12-02T16:06:22.295Z,23.80
2017-12-02T16:08:50.589Z,24.42
2017-12-02T16:11:19.669Z,25.70
2017-12-02T16:13:47.989Z,25.90
2017-12-02T16:16:16.300Z,25.45
2017-12-02T16:18:44.591Z,23.38
2017-12-02T16:21:12.939Z,22.25
2017-12-02T16:23:41.234Z,23.58
2017-12-02T16:26:09.555Z,23.70
2017-12-02T16:28:37.871Z,24.80
2017-12-02T16:31:06.198Z,23.95
2017-12-02T16:33:35.265Z,21.60
2017-12-02T16:36:03.576Z,25.40
2017-12-02T16:38:31.880Z,24.23
2017-12-02T16:41:00.185Z,22.70
2017-12-02T16:43:28.476Z,22.75
2017-12-02T16:45:56.772Z,21.70
2017-12-02T16:48:25.832Z,24.00
2017-12-02T16:50:54.132Z,23.02
2017-12-02T16:53:22.431Z,27.17
2017-12-02T16:55:51.500Z,24.15
2017-12-02T16:58:19.835Z,23.38
2017-12-02T17:00:48.138Z,23.35
2017-12-02T17:03:16.459Z,24.98
2017-12-02T17:05:45.521Z,23.50
2017-12-02T17:08:13.832Z,23.83
2017-12-02T17:10:42.137Z,23.98
2017-12-02T17:13:10.433Z,24.02
2017-12-02T17:15:38.754Z,26.40
2017-12-02T17:18:07.043Z,23.58
2017-12-02T17:20:35.352Z,24.05
2017-12-02T17:23:03.652Z,23.48
2017-12-02T17:25:31.963Z,24.65
2017-12-02T17:28:00.263Z,25.48
2017-12-02T17:30:28.584Z,21.75
2017-12-02T17:32:56.922Z,22.42
2017-12-02T17:35:25.222Z,23.60
2017-12-02T17:37:54.281Z,22.95
2017-12-02T17:40:22.603Z,23.92
2017-12-02T17:42:50.897Z,23.27
2017-12-02T17:45:19.200Z,23.30
2017-12-02T17:47:47.496Z,23.70
2017-12-02T17:50:15.795Z,21.90
2017-12-02T17:52:44.104Z,30.23
2017-12-02T17:55:12.402Z,24.55
2017-12-02T17:57:40.721Z,24.50
2017-12-02T18:00:09.030Z,23.20
2017-12-02T18:02:38.113Z,24.20
2017-12-02T18:05:06.464Z,23.25
2017-12-02T18:07:34.763Z,22.05
2017-12-02T18:10:03.094Z,21.30
2017-12-02T18:12:32.376Z,23.70
2017-12-02T18:15:00.731Z,22.37
2017-12-02T18:17:29.019Z,21.85
2017-12-02T18:20:00.350Z,23.15
2017-12-02T18:22:28.690Z,25.08
2017-12-02T18:24:56.998Z,27.92
2017-12-02T18:27:25.290Z,24.75
2017-12-02T18:29:54.378Z,25.35
2017-12-02T18:32:22.736Z,23.87
2017-12-02T18:34:52.181Z,23.30
2017-12-02T18:37:21.280Z,25.30
2017-12-02T18:39:50.393Z,23.95
2017-12-02T18:42:18.689Z,25.45
2017-12-02T18:44:47.018Z,24.92
2017-12-02T18:47:16.066Z,30.67
2017-12-02T18:49:46.106Z,30.17
2017-12-02T18:52:14.378Z,24.05
2017-12-02T18:54:42.748Z,24.00
2017-12-02T18:57:11.103Z,25.25
2017-12-02T18:59:40.356Z,26.98
2017-12-02T19:02:10.627Z,27.02
2017-12-02T19:04:48.864Z,24.65
2017-12-02T19:07:19.227Z,26.25
2017-12-02T19:09:47.581Z,28.10
2017-12-02T19:12:16.730Z,28.42
2017-12-02T19:14:47.269Z,25.55
2017-12-02T19:17:16.197Z,24.55
2017-12-02T19:19:45.822Z,23.48
2017-12-02T19:22:14.191Z,23.05
2017-12-02T19:24:42.528Z,26.00
2017-12-02T19:27:14.572Z,25.45
2017-12-02T19:29:42.926Z,24.05
2017-12-02T19:32:13.592Z,25.92
2017-12-02T19:34:41.963Z,26.70
2017-12-02T19:37:14.676Z,25.08
2017-12-02T19:39:43.066Z,26.83
2017-12-02T19:42:30.958Z,24.80
2017-12-02T19:44:59.360Z,26.17
2017-12-02T19:47:27.690Z,23.27
2017-12-02T19:49:56.014Z,25.67
2017-12-02T19:52:24.359Z,24.87
2017-12-02T19:54:52.695Z,23.85
2017-12-02T19:57:21.028Z,26.25
2017-12-02T19:59:49.390Z,24.92
2017-12-02T20:02:20.437Z,25.02
2017-12-02T20:04:48.834Z,24.05
2017-12-02T20:07:17.191Z,29.52
2017-12-02T20:12:20.434Z,24.10
2017-12-02T20:14:48.820Z,25.02
2017-12-02T20:17:17.194Z,27.08
2017-12-02T20:19:45.549Z,24.58
2017-12-02T20:22:13.886Z,25.80
2017-12-02T20:24:42.916Z,27.20
2017-12-02T20:27:22.894Z,25.23
2017-12-02T20:29:51.246Z,24.90
2017-12-02T20:32:19.605Z,26.77
2017-12-02T20:34:47.939Z,27.48
2017-12-02T20:37:16.286Z,25.60
2017-12-02T20:39:44.598Z,25.10
2017-12-02T20:42:12.870Z,23.65
2017-12-02T20:44:41.138Z,24.80
2017-12-02T20:47:09.428Z,26.40
2017-12-02T20:49:40.912Z,22.02
2017-12-02T20:52:09.206Z,20.83
2017-12-02T20:54:37.533Z,27.85
2017-12-02T20:57:06.591Z,25.60
2017-12-02T20:59:35.110Z,23.35
2017-12-02T21:02:11.178Z,22.17
2017-12-02T21:04:40.264Z,22.08
2017-12-02T21:07:10.485Z,25.23
2017-12-02T21:09:38.985Z,27.95
2017-12-02T21:12:08.223Z,26.62
2017-12-02T21:14:36.613Z,24.83
2017-12-02T21:17:05.041Z,26.92
2017-12-02T21:19:33.414Z,29.37
2017-12-02T21:22:03.274Z,26.75
2017-12-02T21:24:44.231Z,24.95
2017-12-02T21:31:13.118Z,23.95
2017-12-02T21:37:50.409Z,21.62
2017-12-02T21:40:20.083Z,23.62
2017-12-02T21:42:49.597Z,25.33
2017-12-02T21:45:18.038Z,21.75
2017-12-02T21:47:46.475Z,24.73
2017-12-02T21:50:18.773Z,24.10
2017-12-02T21:52:55.115Z,24.35
2017-12-02T21:55:45.288Z,24.80
2017-12-02T21:58:19.345Z,26.05
2017-12-02T22:46:46.114Z,21.73
2017-12-02T22:49:14.444Z,25.55
2017-12-02T22:51:43.573Z,25.80
2017-12-02T22:54:12.979Z,22.58
2017-12-02T22:56:41.326Z,23.80
2017-12-02T22:59:10.445Z,23.42
2017-12-02T23:01:38.805Z,23.62
2017-12-02T23:04:07.910Z,23.17
2017-12-02T23:06:36.296Z,24.98
2017-12-02T23:09:04.612Z,24.58
2017-12-02T23:11:32.946Z,26.80
2017-12-02T23:14:01.333Z,27.45
2017-12-02T23:16:29.684Z,25.52
2017-12-02T23:18:58.766Z,26.48
2017-12-02T23:21:27.214Z,21.67
2017-12-02T23:23:58.818Z,21.17
2017-12-02T23:26:27.919Z,21.52
2017-12-02T23:31:36.830Z,24.73
2017-12-02T23:34:06.107Z,24.90
2017-12-02T23:36:34.461Z,22.80
2017-12-02T23:39:02.849Z,24.67
2017-12-02T23:41:32.049Z,25.35
2017-12-02T23:44:02.600Z,23.80
2017-12-02T23:46:30.987Z,24.05
2017-12-02T23:48:59.356Z,23.00
2017-12-02T23:51:27.711Z,27.87
2017-12-02T23:53:56.093Z,25.08
2017-12-02T23:56:24.473Z,24.45
2017-12-02T23:58:52.811Z,24.70
